In Rescue
 
Open Full Screen Window  High Contrast Mode
Wind Gusting 00 knots
05
May 25, 2022 9:41 PM CDT
Weather Information
Wind Direction
  020 °
Wind Speed
  05 kt (6 mph)
Wind Gust
  00 kt (0 mph)
Altimeter
29.93 in
Visibility
10 SM
Temperature
12° C
54° F
Dewpoint
09° C
48° F
Humidity
82%
1hr Rain Fall
00.00 in.
24hr Rain Fall
00.01 in.
Sky Condition
Overcast @ 1,900 ft
MVFR

METAR KDXX 260241Z AUTO 02005KT 10SM OVC019 12/09 A2993 RMK AO2

FAA Disclaimer: The data displayed is for advisory purposes only and is not to be used for flight planning or operations.